createdAt,value
2017-07-19T00:00:50.512Z,2.53
2017-07-19T00:03:17.998Z,3.50
2017-07-19T00:05:45.500Z,2.37
2017-07-19T00:08:13.741Z,2.83
2017-07-19T00:10:41.281Z,2.70
2017-07-19T00:13:08.750Z,2.33
2017-07-19T00:15:36.248Z,2.90
2017-07-19T00:18:04.516Z,2.80
2017-07-19T00:20:31.996Z,3.10
2017-07-19T00:23:00.238Z,2.43
2017-07-19T00:25:27.733Z,2.63
2017-07-19T00:27:55.216Z,2.60
2017-07-19T00:30:22.732Z,2.77
2017-07-19T00:32:50.199Z,2.40
2017-07-19T00:35:17.688Z,2.30
2017-07-19T00:37:45.177Z,2.20
2017-07-19T00:40:12.677Z,2.40
2017-07-19T00:42:40.153Z,2.17
2017-07-19T00:45:07.640Z,2.03
2017-07-19T00:47:35.104Z,1.80
2017-07-19T00:50:02.600Z,2.20
2017-07-19T00:52:30.072Z,2.10
2017-07-19T00:54:57.580Z,2.40
2017-07-19T00:57:25.047Z,2.00
2017-07-19T00:59:52.561Z,2.60
2017-07-19T01:02:20.052Z,2.50
2017-07-19T01:04:47.544Z,2.40
2017-07-19T01:07:15.027Z,2.10
2017-07-19T01:09:42.552Z,1.80
2017-07-19T01:12:10.036Z,1.80
2017-07-19T01:14:37.518Z,2.73
2017-07-19T01:17:05.017Z,1.90
2017-07-19T01:19:32.509Z,2.23
2017-07-19T01:21:59.995Z,1.73
2017-07-19T01:24:27.507Z,1.87
2017-07-19T01:26:55.009Z,1.70
2017-07-19T01:29:22.484Z,2.17
2017-07-19T01:31:50.633Z,1.77
2017-07-19T01:34:18.120Z,1.97
2017-07-19T01:36:45.600Z,1.90
2017-07-19T01:39:13.081Z,1.93
2017-07-19T01:41:41.345Z,1.70
2017-07-19T01:44:08.824Z,1.80
2017-07-19T01:46:36.423Z,1.50
2017-07-19T01:49:03.910Z,1.93
2017-07-19T01:51:31.429Z,1.90
2017-07-19T01:53:59.736Z,1.80
2017-07-19T01:56:27.228Z,1.63
2017-07-19T01:58:55.489Z,2.03
2017-07-19T02:01:22.956Z,1.70
2017-07-19T02:03:50.452Z,1.80
2017-07-19T02:06:17.943Z,1.67
2017-07-19T02:08:45.413Z,1.30
2017-07-19T02:11:13.615Z,1.87
2017-07-19T02:13:41.223Z,1.63
2017-07-19T02:16:08.717Z,1.73
2017-07-19T02:18:36.198Z,1.60
2017-07-19T02:21:03.956Z,1.50
2017-07-19T02:23:31.493Z,1.60
2017-07-19T02:25:58.964Z,1.70
2017-07-19T02:28:26.510Z,1.77
2017-07-19T02:30:53.984Z,1.70
2017-07-19T02:33:21.496Z,1.70
2017-07-19T02:35:48.988Z,1.80
2017-07-19T02:38:16.484Z,1.23
2017-07-19T02:40:43.957Z,1.87
2017-07-19T02:43:11.447Z,1.40
2017-07-19T02:45:38.944Z,1.50
2017-07-19T02:48:06.442Z,2.20
2017-07-19T02:50:33.932Z,1.40
2017-07-19T02:53:01.405Z,1.80
2017-07-19T02:55:28.888Z,1.60
2017-07-19T02:57:56.389Z,1.53
2017-07-19T03:00:23.888Z,1.43
2017-07-19T03:02:52.129Z,1.40
2017-07-19T03:05:19.639Z,1.57
2017-07-19T03:07:47.113Z,1.50
2017-07-19T03:10:14.604Z,1.80
2017-07-19T03:12:42.088Z,1.50
2017-07-19T03:15:09.571Z,1.30
2017-07-19T03:17:37.825Z,1.30
2017-07-19T03:20:05.294Z,1.60
2017-07-19T03:22:44.608Z,1.60
2017-07-19T03:25:12.081Z,1.43
2017-07-19T03:27:40.329Z,1.53
2017-07-19T03:30:07.831Z,1.33
2017-07-19T03:32:36.075Z,1.30
2017-07-19T03:35:03.569Z,1.40
2017-07-19T03:37:31.057Z,1.33
2017-07-19T03:39:58.553Z,1.30
2017-07-19T03:42:26.029Z,1.70
2017-07-19T03:44:53.535Z,1.30
2017-07-19T03:47:21.022Z,1.40
2017-07-19T03:49:48.512Z,1.50
2017-07-19T03:52:16.990Z,2.00
2017-07-19T03:54:44.476Z,1.63
2017-07-19T03:57:12.599Z,1.47
2017-07-19T03:59:40.072Z,1.57
2017-07-19T04:02:07.593Z,1.60
2017-07-19T04:04:35.077Z,1.60
2017-07-19T04:07:02.613Z,1.17
2017-07-19T04:09:30.096Z,1.43
2017-07-19T04:11:57.580Z,1.40
2017-07-19T04:14:25.083Z,1.83
2017-07-19T04:16:52.573Z,1.70
2017-07-19T04:19:20.060Z,1.17
2017-07-19T04:21:47.543Z,1.30
2017-07-19T04:24:15.032Z,1.30
2017-07-19T04:26:42.519Z,1.10
2017-07-19T04:29:10.791Z,1.37
2017-07-19T04:31:39.133Z,1.30
2017-07-19T04:34:06.607Z,1.40
2017-07-19T04:36:34.085Z,1.80
2017-07-19T04:39:02.336Z,1.30
2017-07-19T04:41:29.812Z,1.40
2017-07-19T04:43:57.301Z,1.53
2017-07-19T04:46:24.782Z,1.40
2017-07-19T04:48:52.274Z,1.53
2017-07-19T04:51:19.744Z,1.30
2017-07-19T04:53:47.216Z,1.30
2017-07-19T04:56:15.463Z,1.70
2017-07-19T04:58:42.958Z,1.60
2017-07-19T05:01:10.449Z,1.50
2017-07-19T05:03:37.956Z,1.93
2017-07-19T05:06:06.279Z,1.67
2017-07-19T05:08:33.740Z,2.00
2017-07-19T05:11:01.261Z,1.60
2017-07-19T05:13:29.499Z,2.00
2017-07-19T05:15:56.993Z,1.90
2017-07-19T05:18:24.499Z,1.70
2017-07-19T05:20:51.977Z,2.20
2017-07-19T05:23:19.476Z,1.93
2017-07-19T05:25:47.717Z,1.63
2017-07-19T05:28:15.188Z,2.10
2017-07-19T05:30:42.695Z,1.97
2017-07-19T05:33:10.188Z,2.13
2017-07-19T05:35:37.688Z,1.77
2017-07-19T05:38:05.183Z,2.90
2017-07-19T05:40:32.682Z,2.17
2017-07-19T05:43:00.160Z,2.00
2017-07-19T05:45:28.416Z,1.90
2017-07-19T05:47:55.882Z,2.10
2017-07-19T05:50:23.384Z,2.97
2017-07-19T05:52:50.852Z,1.97
2017-07-19T05:55:18.335Z,1.73
2017-07-19T05:57:45.808Z,1.93
2017-07-19T06:00:13.334Z,1.50
2017-07-19T06:02:40.818Z,2.10
2017-07-19T06:05:09.173Z,2.30
2017-07-19T06:07:36.665Z,1.80
2017-07-19T06:10:04.921Z,1.50
2017-07-19T06:12:32.411Z,1.90
2017-07-19T06:15:00.675Z,1.90
2017-07-19T06:17:28.926Z,1.50
2017-07-19T06:19:56.428Z,1.77
2017-07-19T06:22:23.901Z,2.00
2017-07-19T06:24:51.400Z,2.00
2017-07-19T06:27:18.880Z,1.90
2017-07-19T06:29:47.132Z,1.70
2017-07-19T06:32:14.637Z,2.13
2017-07-19T06:34:42.868Z,1.87
2017-07-19T06:37:10.349Z,1.63
2017-07-19T06:39:37.824Z,1.73
2017-07-19T06:42:06.067Z,1.60
2017-07-19T06:44:33.536Z,2.37
2017-07-19T06:47:01.017Z,1.50
2017-07-19T06:49:29.253Z,2.00
2017-07-19T06:51:56.755Z,1.70
2017-07-19T06:54:24.253Z,2.07
2017-07-19T06:56:51.749Z,1.83
2017-07-19T06:59:19.997Z,2.00
2017-07-19T07:01:47.460Z,1.70
2017-07-19T07:04:14.948Z,1.67
2017-07-19T07:06:43.197Z,1.97
2017-07-19T07:09:10.703Z,1.43
2017-07-19T07:11:38.204Z,1.60
2017-07-19T07:14:05.697Z,1.77
2017-07-19T07:16:33.948Z,1.50
2017-07-19T07:19:01.447Z,1.40
2017-07-19T07:21:29.680Z,1.70
2017-07-19T07:23:57.161Z,1.50
2017-07-19T07:26:24.629Z,2.00
2017-07-19T07:28:52.893Z,1.77
2017-07-19T07:31:20.355Z,1.70
2017-07-19T07:33:48.597Z,2.10
2017-07-19T07:36:16.134Z,1.70
2017-07-19T07:38:43.628Z,1.70
2017-07-19T07:41:11.151Z,2.30
2017-07-19T07:43:38.637Z,1.83
2017-07-19T07:46:06.141Z,1.87
2017-07-19T07:48:34.392Z,1.93
2017-07-19T07:51:01.857Z,2.20
2017-07-19T07:53:29.345Z,1.93
2017-07-19T07:55:56.828Z,1.90
2017-07-19T07:58:24.296Z,2.27
2017-07-19T08:00:51.814Z,1.73
2017-07-19T08:03:19.284Z,2.50
2017-07-19T08:05:46.773Z,2.27
2017-07-19T08:08:14.270Z,2.23
2017-07-19T08:10:42.507Z,2.20
2017-07-19T08:13:10.008Z,2.20
2017-07-19T08:15:38.248Z,2.77
2017-07-19T08:18:05.757Z,2.33
2017-07-19T08:20:33.216Z,3.87
2017-07-19T08:25:34.717Z,3.00
2017-07-19T08:28:02.200Z,2.67
2017-07-19T08:30:29.710Z,3.27
2017-07-19T08:32:57.184Z,2.83
2017-07-19T08:35:24.667Z,2.83
2017-07-19T08:37:52.128Z,3.50
2017-07-19T08:40:19.619Z,2.70
2017-07-19T08:42:47.865Z,3.17
2017-07-19T08:45:15.333Z,2.90
2017-07-19T08:47:42.816Z,3.17
2017-07-19T08:50:10.293Z,3.87
2017-07-19T08:52:37.776Z,3.10
2017-07-19T08:55:05.260Z,3.43
2017-07-19T08:57:32.758Z,3.57
2017-07-19T09:00:00.244Z,2.90
2017-07-19T09:02:27.723Z,2.87
2017-07-19T09:04:55.211Z,3.40
2017-07-19T09:07:23.454Z,3.10
2017-07-19T09:09:50.940Z,3.23
2017-07-19T09:12:19.179Z,2.90
2017-07-19T09:14:46.688Z,3.47
2017-07-19T09:17:14.924Z,3.23
2017-07-19T09:19:42.388Z,3.57
2017-07-19T09:22:09.893Z,3.43
2017-07-19T09:24:37.388Z,3.17
2017-07-19T09:27:04.869Z,2.70
2017-07-19T09:29:32.365Z,2.70
2017-07-19T09:32:00.591Z,3.50
2017-07-19T09:34:28.064Z,3.40
2017-07-19T09:36:55.557Z,3.10
2017-07-19T09:39:23.037Z,3.87
2017-07-19T09:41:50.528Z,2.90
2017-07-19T09:44:17.998Z,3.17
2017-07-19T09:46:45.496Z,3.90
2017-07-19T09:49:12.989Z,3.47
2017-07-19T09:51:40.491Z,2.80
2017-07-19T09:54:08.717Z,3.70
2017-07-19T09:56:36.206Z,3.63
2017-07-19T09:59:03.672Z,3.10
2017-07-19T10:01:31.177Z,3.80
2017-07-19T10:03:58.657Z,2.77
2017-07-19T10:06:26.153Z,3.50
2017-07-19T10:08:54.397Z,3.10
2017-07-19T10:11:21.883Z,3.27
2017-07-19T10:13:49.349Z,3.60
2017-07-19T10:16:17.597Z,3.77
2017-07-19T10:18:45.099Z,3.60
2017-07-19T10:21:12.575Z,3.40
2017-07-19T10:23:40.045Z,3.00
2017-07-19T10:26:07.538Z,3.60
2017-07-19T10:28:35.012Z,2.90
2017-07-19T10:31:03.313Z,3.73
2017-07-19T10:33:30.782Z,3.87
2017-07-19T10:35:58.298Z,3.83
2017-07-19T10:38:25.892Z,3.70
2017-07-19T10:40:53.377Z,3.27
2017-07-19T10:43:20.875Z,3.60
2017-07-19T10:45:48.352Z,3.33
2017-07-19T10:48:15.844Z,3.27
2017-07-19T10:50:43.324Z,3.40
2017-07-19T10:53:10.816Z,4.07
2017-07-19T10:55:39.051Z,3.70
2017-07-19T10:58:06.556Z,3.27
2017-07-19T11:00:34.815Z,3.13
2017-07-19T11:03:02.293Z,3.67
2017-07-19T11:05:30.571Z,4.00
2017-07-19T11:07:58.801Z,3.03
2017-07-19T11:10:26.278Z,3.83
2017-07-19T11:12:53.761Z,3.50
2017-07-19T11:15:22.017Z,3.43
2017-07-19T11:17:49.475Z,3.60
2017-07-19T11:20:16.955Z,3.37
2017-07-19T11:22:45.216Z,3.37
2017-07-19T11:25:13.465Z,3.40
2017-07-19T11:27:40.961Z,3.43
2017-07-19T11:30:08.439Z,3.60
2017-07-19T11:32:35.919Z,3.00
2017-07-19T11:35:03.402Z,4.13
2017-07-19T11:37:30.894Z,4.20
2017-07-19T11:39:59.151Z,4.20
2017-07-19T11:42:26.641Z,4.10
2017-07-19T11:44:54.138Z,3.60
2017-07-19T11:47:21.631Z,4.50
2017-07-19T11:49:49.120Z,3.47
2017-07-19T11:52:16.603Z,3.50
2017-07-19T11:54:44.101Z,4.03
2017-07-19T11:57:11.582Z,3.40
2017-07-19T11:59:39.813Z,3.40
2017-07-19T12:02:07.296Z,3.70
2017-07-19T12:04:35.532Z,3.23
2017-07-19T12:07:03.012Z,4.00
2017-07-19T12:09:30.496Z,3.63
2017-07-19T12:11:58.751Z,3.80
2017-07-19T12:14:26.223Z,3.70
2017-07-19T12:16:53.696Z,3.77
2017-07-19T12:19:21.959Z,3.40
2017-07-19T12:21:50.204Z,4.03
2017-07-19T12:24:17.689Z,3.53
2017-07-19T12:26:45.167Z,3.80
2017-07-19T12:29:13.417Z,3.87
2017-07-19T12:31:40.908Z,3.30
2017-07-19T12:34:08.368Z,3.60
2017-07-19T12:36:35.856Z,4.17
2017-07-19T12:39:03.365Z,3.47
2017-07-19T12:41:31.591Z,3.63
2017-07-19T12:43:59.078Z,4.10
2017-07-19T12:46:26.552Z,4.50
2017-07-19T12:48:54.043Z,3.80
2017-07-19T12:51:21.521Z,4.40
2017-07-19T12:53:49.031Z,4.03
2017-07-19T12:56:17.283Z,4.43
2017-07-19T12:58:44.760Z,4.27
2017-07-19T13:01:12.234Z,4.20
2017-07-19T13:03:40.491Z,4.30
2017-07-19T13:06:07.960Z,3.90
2017-07-19T13:08:36.193Z,3.93
2017-07-19T13:11:03.680Z,4.40
2017-07-19T13:13:31.186Z,4.40
2017-07-19T13:15:58.665Z,4.80
2017-07-19T13:18:26.147Z,3.77
2017-07-19T13:20:53.613Z,3.93
2017-07-19T13:23:21.123Z,4.43
2017-07-19T13:25:48.600Z,4.63
2017-07-19T13:28:16.089Z,4.70
2017-07-19T13:30:43.574Z,5.57
2017-07-19T13:33:11.074Z,5.10
2017-07-19T13:35:38.542Z,4.60
2017-07-19T13:38:06.070Z,5.30
2017-07-19T13:40:33.540Z,4.80
2017-07-19T13:43:01.051Z,5.10
2017-07-19T13:45:29.276Z,4.80
2017-07-19T13:47:56.793Z,4.77
2017-07-19T13:50:25.036Z,5.03
2017-07-19T13:52:52.506Z,4.70
2017-07-19T13:55:19.992Z,4.70
2017-07-19T13:57:47.457Z,4.27
2017-07-19T14:00:14.936Z,4.43
2017-07-19T14:02:42.415Z,4.60
2017-07-19T14:05:09.906Z,4.63
2017-07-19T14:07:38.169Z,4.23
2017-07-19T14:10:05.647Z,4.30
2017-07-19T14:12:33.906Z,4.97
2017-07-19T14:15:01.415Z,4.27
2017-07-19T14:17:28.900Z,4.63
2017-07-19T14:19:56.383Z,4.53
2017-07-19T14:22:23.852Z,4.00
2017-07-19T14:24:52.113Z,4.40
2017-07-19T14:27:19.592Z,4.70
2017-07-19T14:29:47.851Z,4.20
2017-07-19T14:32:15.317Z,4.70
2017-07-19T14:34:43.580Z,3.90
2017-07-19T14:37:11.075Z,3.70
2017-07-19T14:39:38.561Z,3.90
2017-07-19T14:42:06.028Z,3.40
2017-07-19T14:44:34.342Z,3.70
2017-07-19T14:47:01.844Z,4.40
2017-07-19T14:49:29.332Z,3.70
2017-07-19T14:51:56.857Z,3.70
2017-07-19T14:54:24.324Z,4.43
2017-07-19T14:56:51.844Z,5.10
2017-07-19T14:59:20.085Z,5.07
2017-07-19T15:01:47.575Z,4.50
2017-07-19T15:04:15.821Z,5.33
2017-07-19T15:06:43.337Z,4.97
2017-07-19T15:09:10.821Z,4.40
2017-07-19T15:11:38.304Z,4.67
2017-07-19T15:14:05.792Z,5.83
2017-07-19T15:16:34.033Z,3.83
2017-07-19T15:19:02.126Z,4.57
2017-07-19T15:21:29.604Z,4.20
2017-07-19T15:23:57.848Z,4.97
2017-07-19T15:26:25.333Z,5.10
2017-07-19T15:28:53.585Z,4.60
2017-07-19T15:31:21.060Z,4.90
2017-07-19T15:33:49.316Z,5.10
2017-07-19T15:36:16.832Z,4.97
2017-07-19T15:38:44.351Z,4.30
2017-07-19T15:41:12.592Z,4.63
2017-07-19T15:43:40.064Z,4.87
2017-07-19T15:46:07.554Z,4.43
2017-07-19T15:48:35.816Z,4.57
2017-07-19T15:51:03.297Z,5.07
2017-07-19T15:53:31.638Z,4.70
2017-07-19T15:55:59.110Z,6.37
2017-07-19T15:58:27.340Z,5.17
2017-07-19T16:00:54.825Z,4.80
2017-07-19T16:03:22.313Z,6.00
2017-07-19T16:05:50.781Z,5.80
2017-07-19T16:08:18.271Z,5.40
2017-07-19T16:10:45.777Z,4.90
2017-07-19T16:13:13.260Z,5.37
2017-07-19T16:15:41.533Z,5.33
2017-07-19T16:18:08.996Z,5.13
2017-07-19T16:20:37.253Z,4.80
2017-07-19T16:23:04.738Z,5.10
2017-07-19T16:25:32.960Z,6.03
2017-07-19T16:28:00.457Z,4.87
2017-07-19T16:30:27.928Z,4.40
2017-07-19T16:32:56.185Z,5.20
2017-07-19T16:35:23.664Z,5.30
2017-07-19T16:37:51.935Z,5.50
2017-07-19T16:40:20.186Z,5.27
2017-07-19T16:42:47.662Z,4.67
2017-07-19T16:45:15.928Z,4.97
2017-07-19T16:47:43.406Z,5.40
2017-07-19T16:50:11.687Z,5.33
2017-07-19T16:52:39.174Z,4.90
2017-07-19T16:55:06.672Z,5.00
2017-07-19T16:57:34.149Z,4.07
2017-07-19T17:00:02.417Z,4.20
2017-07-19T17:02:29.886Z,4.67
2017-07-19T17:04:57.359Z,4.37
2017-07-19T17:07:24.849Z,4.80
2017-07-19T17:09:52.325Z,4.63
2017-07-19T17:12:19.840Z,5.10
2017-07-19T17:14:47.337Z,5.13
2017-07-19T17:17:14.832Z,5.20
2017-07-19T17:19:43.079Z,5.53
2017-07-19T17:22:10.570Z,5.43
2017-07-19T17:24:38.828Z,4.20
2017-07-19T17:27:06.349Z,4.73
2017-07-19T17:29:33.817Z,4.87
2017-07-19T17:32:01.362Z,4.90
2017-07-19T17:34:28.833Z,4.83
2017-07-19T17:36:56.349Z,5.10
2017-07-19T17:39:23.824Z,5.70
2017-07-19T17:41:51.471Z,5.23
2017-07-19T17:44:19.709Z,5.23
2017-07-19T17:46:47.217Z,5.67
2017-07-19T17:49:14.698Z,4.90
2017-07-19T17:51:42.201Z,5.30
2017-07-19T17:54:09.673Z,5.00
2017-07-19T17:56:37.196Z,4.80
2017-07-19T17:59:04.697Z,5.23
2017-07-19T18:01:36.189Z,4.70
2017-07-19T18:04:03.723Z,5.37
2017-07-19T18:06:31.225Z,3.97
2017-07-19T18:08:58.718Z,5.60
2017-07-19T18:11:26.209Z,5.80
2017-07-19T18:13:53.685Z,5.40
2017-07-19T18:16:21.222Z,4.93
2017-07-19T18:18:48.737Z,5.43
2017-07-19T18:21:16.225Z,5.33
2017-07-19T18:23:43.712Z,5.70
2017-07-19T18:26:11.204Z,4.63
2017-07-19T18:28:40.158Z,5.50
2017-07-19T18:31:07.650Z,5.93
2017-07-19T18:33:35.149Z,6.43
2017-07-19T18:36:03.425Z,4.67
2017-07-19T18:38:30.894Z,4.87
2017-07-19T18:40:59.158Z,4.70
2017-07-19T18:43:27.434Z,5.40
2017-07-19T18:45:55.905Z,4.97
2017-07-19T18:48:23.623Z,5.57
2017-07-19T18:50:51.940Z,5.00
2017-07-19T18:53:19.440Z,6.03
2017-07-19T18:55:46.940Z,5.50
2017-07-19T18:58:15.187Z,6.60
2017-07-19T19:00:42.689Z,5.50
2017-07-19T19:03:10.165Z,5.20
2017-07-19T19:05:37.727Z,5.43
2017-07-19T19:08:05.227Z,5.60
2017-07-19T19:10:32.733Z,5.00
2017-07-19T19:13:00.225Z,5.40
2017-07-19T19:15:27.724Z,4.87
2017-07-19T19:17:55.981Z,5.43
2017-07-19T19:20:23.466Z,6.43
2017-07-19T19:22:51.016Z,6.57
2017-07-19T19:25:18.526Z,5.77
2017-07-19T19:27:46.031Z,5.50
2017-07-19T19:30:13.537Z,6.27
2017-07-19T19:32:41.008Z,5.03
2017-07-19T19:35:09.289Z,6.20
2017-07-19T19:37:37.536Z,6.73
2017-07-19T19:40:05.055Z,6.83
2017-07-19T19:42:32.546Z,6.73
2017-07-19T19:45:00.016Z,5.60
2017-07-19T19:47:27.528Z,4.50
2017-07-19T19:49:55.029Z,4.00
2017-07-19T19:52:22.539Z,4.20
2017-07-19T19:54:50.041Z,3.90
2017-07-19T19:57:18.281Z,4.23
2017-07-19T19:59:45.756Z,4.22
2017-07-19T20:02:13.277Z,3.40
2017-07-19T20:04:40.744Z,3.57
2017-07-19T20:07:09.409Z,4.40
2017-07-19T20:09:36.896Z,3.73
2017-07-19T20:12:05.060Z,3.40
2017-07-19T20:14:32.525Z,4.10
2017-07-19T20:17:00.017Z,4.80
2017-07-19T20:19:28.285Z,4.53
2017-07-19T20:21:56.541Z,3.50
2017-07-19T20:24:24.052Z,3.73
2017-07-19T20:26:51.545Z,4.00
2017-07-19T20:29:19.064Z,4.10
2017-07-19T20:31:46.565Z,4.60
2017-07-19T20:34:14.048Z,5.10
2017-07-19T20:36:41.569Z,5.27
2017-07-19T20:39:09.044Z,5.50
2017-07-19T20:41:36.555Z,4.80
2017-07-19T20:44:04.037Z,5.77
2017-07-19T20:46:31.537Z,5.37
2017-07-19T20:48:59.038Z,5.57
2017-07-19T20:51:26.630Z,6.00
2017-07-19T20:53:54.106Z,6.20
2017-07-19T20:56:21.606Z,6.03
2017-07-19T20:58:49.072Z,5.00
2017-07-19T21:01:16.557Z,5.10
2017-07-19T21:03:44.052Z,6.10
2017-07-19T21:06:12.305Z,6.20
2017-07-19T21:08:39.797Z,6.67
2017-07-19T21:11:08.078Z,6.20
2017-07-19T21:13:36.324Z,6.33
2017-07-19T21:16:03.813Z,6.47
2017-07-19T21:18:32.078Z,6.60
2017-07-19T21:21:00.342Z,6.70
2017-07-19T21:23:27.825Z,7.40
2017-07-19T21:25:56.107Z,6.47
2017-07-19T21:28:23.571Z,7.90
2017-07-19T21:30:51.152Z,7.40
2017-07-19T21:33:18.659Z,7.20
2017-07-19T21:35:46.141Z,7.30
2017-07-19T21:38:13.646Z,8.20
2017-07-19T21:40:41.117Z,7.30
2017-07-19T21:43:08.617Z,7.33
2017-07-19T21:45:36.112Z,6.87
2017-07-19T21:48:03.580Z,6.87
2017-07-19T21:50:31.097Z,5.60
2017-07-19T21:52:58.613Z,5.93
2017-07-19T21:55:26.098Z,6.20
2017-07-19T21:57:54.367Z,6.03
2017-07-19T22:00:22.603Z,5.60
2017-07-19T22:02:50.095Z,5.97
2017-07-19T22:05:17.606Z,6.20
2017-07-19T22:07:45.131Z,5.77
2017-07-19T22:10:13.404Z,6.90
2017-07-19T22:12:40.927Z,6.70
2017-07-19T22:15:09.327Z,6.30
2017-07-19T22:17:37.603Z,6.60
2017-07-19T22:20:05.106Z,7.20
2017-07-19T22:22:32.599Z,6.53
2017-07-19T22:25:00.076Z,6.37
2017-07-19T22:27:27.553Z,7.53
2017-07-19T22:29:55.812Z,7.27
2017-07-19T22:32:23.301Z,6.87
2017-07-19T22:34:50.797Z,6.87
2017-07-19T22:37:18.273Z,6.90
2017-07-19T22:39:45.900Z,7.03
2017-07-19T22:42:13.377Z,8.07
2017-07-19T22:44:40.868Z,7.23
2017-07-19T22:47:09.114Z,7.10
2017-07-19T22:49:36.616Z,7.70
2017-07-19T22:52:04.853Z,5.43
2017-07-19T22:54:32.342Z,5.70
2017-07-19T22:57:00.573Z,5.10
2017-07-19T22:59:28.066Z,5.30
2017-07-19T23:01:55.575Z,5.03
2017-07-19T23:04:23.057Z,5.23
2017-07-19T23:06:50.534Z,5.40
2017-07-19T23:09:18.028Z,5.70
2017-07-19T23:11:45.507Z,5.00
2017-07-19T23:14:13.007Z,4.43
2017-07-19T23:16:40.480Z,4.00
2017-07-19T23:19:08.737Z,5.07
2017-07-19T23:21:36.212Z,4.93
2017-07-19T23:24:04.475Z,4.80
2017-07-19T23:26:31.993Z,5.50
2017-07-19T23:28:59.484Z,7.37
2017-07-19T23:31:27.013Z,5.63
2017-07-19T23:33:54.488Z,7.70
2017-07-19T23:36:22.028Z,7.30
2017-07-19T23:38:49.505Z,7.03
2017-07-19T23:41:17.012Z,5.80
2017-07-19T23:43:45.268Z,6.20
2017-07-19T23:46:12.775Z,5.90
2017-07-19T23:48:40.338Z,5.20
2017-07-19T23:51:07.816Z,4.87
2017-07-19T23:53:35.300Z,6.30
2017-07-19T23:56:02.776Z,5.60
2017-07-19T23:58:31.047Z,6.30
